createdAt,value
2023-01-03T00:00:49.555Z,80.55
2023-01-03T00:06:19.381Z,80.36
2023-01-03T00:11:45.913Z,80.29
2023-01-03T00:16:54.432Z,80.01
2023-01-03T00:22:00.467Z,79.76
2023-01-03T00:27:06.284Z,79.56
2023-01-03T00:32:12.528Z,79.49
2023-01-03T00:37:18.332Z,79.60
2023-01-03T00:42:24.087Z,79.66
2023-01-03T00:47:29.794Z,79.97
2023-01-03T00:52:35.610Z,79.97
2023-01-03T00:57:41.541Z,80.12
2023-01-03T01:02:47.383Z,80.39
2023-01-03T01:07:53.422Z,80.50
2023-01-03T01:12:59.092Z,80.55
2023-01-03T01:18:05.028Z,81.07
2023-01-03T01:23:10.780Z,81.36
2023-01-03T01:28:16.469Z,81.52
2023-01-03T01:33:22.273Z,81.32
2023-01-03T01:38:28.048Z,81.10
2023-01-03T01:43:52.791Z,80.74
2023-01-03T01:49:03.245Z,80.63
2023-01-03T01:54:09.921Z,80.44
2023-01-03T01:59:16.492Z,80.39
2023-01-03T02:04:25.792Z,80.04
2023-01-03T02:09:34.364Z,79.96
2023-01-03T02:14:51.231Z,79.98
2023-01-03T02:20:19.617Z,79.85
2023-01-03T02:26:12.000Z,79.61
2023-01-03T02:31:27.464Z,79.50
2023-01-03T02:36:42.195Z,79.36
2023-01-03T02:42:14.032Z,79.20
2023-01-03T02:47:22.115Z,79.13
2023-01-03T02:52:30.707Z,78.95
2023-01-03T02:57:42.466Z,78.81
2023-01-03T03:02:52.377Z,78.65
2023-01-03T03:07:58.359Z,78.65
2023-01-03T03:13:14.860Z,78.87
2023-01-03T03:18:26.915Z,79.08
2023-01-03T03:23:56.367Z,79.16
2023-01-03T03:29:08.626Z,78.89
2023-01-03T03:34:18.526Z,79.28
2023-01-03T03:39:44.896Z,79.37
2023-01-03T03:45:03.238Z,79.46
2023-01-03T03:50:18.455Z,79.46
2023-01-03T03:55:27.983Z,79.23
2023-01-03T04:00:38.425Z,79.46
2023-01-03T04:05:49.112Z,79.85
2023-01-03T04:11:05.909Z,80.43
2023-01-03T04:16:12.431Z,81.33
2023-01-03T04:21:21.032Z,81.84
2023-01-03T04:26:27.252Z,82.21
2023-01-03T04:31:33.619Z,82.41
2023-01-03T04:36:39.290Z,82.37
2023-01-03T04:41:45.089Z,82.29
2023-01-03T04:46:53.039Z,82.30
2023-01-03T04:51:59.207Z,82.21
2023-01-03T04:57:05.128Z,82.12
2023-01-03T05:02:11.145Z,81.95
2023-01-03T05:07:17.047Z,81.82
2023-01-03T05:12:23.000Z,81.81
2023-01-03T05:17:28.825Z,81.72
2023-01-03T05:22:53.679Z,81.85
2023-01-03T05:28:01.986Z,81.78
2023-01-03T05:33:07.749Z,82.04
2023-01-03T05:38:13.715Z,81.93
2023-01-03T05:43:19.814Z,82.18
2023-01-03T05:48:25.899Z,82.49
2023-01-03T05:53:32.044Z,83.11
2023-01-03T05:58:37.705Z,83.75
2023-01-03T06:03:45.489Z,84.03
2023-01-03T06:08:54.853Z,84.63
2023-01-03T06:14:00.811Z,85.30
2023-01-03T06:19:08.146Z,85.69
2023-01-03T06:24:14.339Z,86.04
2023-01-03T06:29:20.579Z,86.45
2023-01-03T06:34:26.581Z,85.99
2023-01-03T06:39:33.680Z,85.59
2023-01-03T06:44:39.693Z,85.14
2023-01-03T06:50:05.733Z,84.71
2023-01-03T06:55:11.441Z,84.32
2023-01-03T07:00:18.281Z,83.81
2023-01-03T07:05:24.191Z,83.21
2023-01-03T07:10:30.156Z,82.86
2023-01-03T07:15:36.042Z,82.73
2023-01-03T07:20:44.392Z,82.54
2023-01-03T07:25:53.938Z,82.48
2023-01-03T07:31:04.185Z,82.12
2023-01-03T07:36:12.483Z,82.13
2023-01-03T07:41:18.245Z,82.09
2023-01-03T07:46:25.220Z,82.09
2023-01-03T07:51:31.515Z,81.93
2023-01-03T07:56:37.475Z,81.89
2023-01-03T08:01:43.195Z,81.57
2023-01-03T08:06:49.260Z,81.53
2023-01-03T08:12:13.909Z,81.41
2023-01-03T08:17:19.791Z,81.32
2023-01-03T08:22:25.635Z,81.14
2023-01-03T08:27:59.876Z,81.09
2023-01-03T08:33:21.790Z,80.86
2023-01-03T08:38:35.537Z,80.96
2023-01-03T08:43:44.564Z,80.69
2023-01-03T08:48:50.479Z,80.34
2023-01-03T08:53:56.357Z,80.26
2023-01-03T08:59:02.378Z,80.12
2023-01-03T09:04:08.505Z,79.90
2023-01-03T09:09:14.439Z,79.22
2023-01-03T09:14:20.183Z,79.02
2023-01-03T09:19:25.999Z,78.26
2023-01-03T09:24:31.824Z,77.26
2023-01-03T09:29:37.767Z,76.97
2023-01-03T09:34:43.643Z,76.45
2023-01-03T09:39:49.431Z,75.77
2023-01-03T09:44:55.708Z,75.48
2023-01-03T09:55:51.529Z,75.70
2023-01-03T10:01:20.424Z,75.30
2023-01-03T10:06:41.104Z,74.19
2023-01-03T10:11:59.810Z,73.92
2023-01-03T10:17:19.193Z,73.72
2023-01-03T10:22:28.479Z,72.03
2023-01-03T10:27:38.134Z,70.81
2023-01-03T10:33:00.567Z,68.48
2023-01-03T10:38:06.347Z,66.55
2023-01-03T10:43:20.127Z,65.52
2023-01-03T10:48:52.372Z,65.20
2023-01-03T10:54:09.791Z,64.28
2023-01-03T10:59:25.431Z,63.13
2023-01-03T11:04:32.718Z,62.91
2023-01-03T11:09:51.231Z,62.59
2023-01-03T11:15:06.312Z,61.73
2023-01-03T11:20:19.769Z,61.96
2023-01-03T11:25:44.190Z,62.52
2023-01-03T11:30:57.781Z,61.50
2023-01-03T11:36:20.904Z,61.25
2023-01-03T11:41:53.785Z,61.05
2023-01-03T11:47:14.835Z,61.18
2023-01-03T11:52:29.906Z,62.17
2023-01-03T11:57:48.427Z,62.79
2023-01-03T12:03:05.570Z,62.22
2023-01-03T12:08:25.722Z,61.22
2023-01-03T12:13:40.381Z,60.73
2023-01-03T12:18:59.064Z,60.27
2023-01-03T12:24:13.864Z,60.59
2023-01-03T12:29:24.613Z,61.30
2023-01-03T12:34:39.567Z,61.44
2023-01-03T12:39:55.267Z,61.84
2023-01-03T12:45:18.907Z,62.10
2023-01-03T12:50:30.882Z,62.88
2023-01-03T12:55:52.221Z,62.55
2023-01-03T13:01:04.748Z,62.34
2023-01-03T13:06:17.500Z,62.33
2023-01-03T13:11:31.319Z,62.95
2023-01-03T13:16:48.962Z,63.64
2023-01-03T13:22:04.911Z,64.22
2023-01-03T13:27:38.652Z,64.64
2023-01-03T13:32:51.941Z,64.76
2023-01-03T13:38:00.897Z,64.67
2023-01-03T13:43:20.716Z,64.71
2023-01-03T13:48:37.992Z,64.77
2023-01-03T13:54:05.817Z,64.98
2023-01-03T13:59:26.975Z,65.35
2023-01-03T14:04:53.929Z,65.96
2023-01-03T14:10:22.234Z,66.31
2023-01-03T14:15:30.636Z,66.26
2023-01-03T14:20:39.552Z,66.22
2023-01-03T14:25:46.294Z,66.39
2023-01-03T14:31:02.320Z,66.77
2023-01-03T14:36:13.776Z,67.10
2023-01-03T14:41:35.047Z,67.43
2023-01-03T14:46:40.775Z,67.95
2023-01-03T14:51:46.793Z,68.44
2023-01-03T14:56:55.099Z,68.63
2023-01-03T15:02:01.936Z,69.01
2023-01-03T15:07:13.482Z,69.41
2023-01-03T15:12:20.313Z,69.91
2023-01-03T15:17:28.315Z,70.49
2023-01-03T15:22:41.206Z,70.75
2023-01-03T15:27:49.048Z,71.00
2023-01-03T15:33:00.945Z,70.98
2023-01-03T15:38:15.618Z,70.96
2023-01-03T15:43:27.004Z,70.78
2023-01-03T15:48:36.747Z,70.78
2023-01-03T15:53:44.644Z,71.09
2023-01-03T15:58:54.802Z,71.43
2023-01-03T16:04:00.619Z,71.87
2023-01-03T16:09:06.573Z,72.22
2023-01-03T16:14:19.507Z,72.50
2023-01-03T16:19:27.840Z,72.58
2023-01-03T16:24:34.323Z,72.49
2023-01-03T16:29:40.153Z,72.20
2023-01-03T16:34:46.106Z,71.96
2023-01-03T16:39:52.048Z,72.00
2023-01-03T16:44:58.645Z,71.85
2023-01-03T16:50:12.952Z,71.83
2023-01-03T16:55:25.233Z,71.93
2023-01-03T17:00:33.452Z,71.86
2023-01-03T17:05:40.063Z,71.93
2023-01-03T17:10:48.486Z,71.97
2023-01-03T17:15:54.881Z,72.31
2023-01-03T17:21:05.971Z,72.82
2023-01-03T17:26:17.036Z,73.29
2023-01-03T17:31:25.847Z,73.96
2023-01-03T17:36:33.566Z,74.56
2023-01-03T17:41:58.624Z,75.00
2023-01-03T17:47:40.490Z,75.33
2023-01-03T17:52:50.309Z,75.71
2023-01-03T17:58:04.607Z,76.25
2023-01-03T18:03:11.513Z,76.63
2023-01-03T18:08:21.487Z,77.18
2023-01-03T18:13:31.228Z,77.70
2023-01-03T18:18:36.827Z,77.95
2023-01-03T18:23:43.528Z,78.09
2023-01-03T18:28:49.332Z,77.97
2023-01-03T18:33:57.323Z,77.69
2023-01-03T18:39:07.924Z,77.63
2023-01-03T18:44:21.157Z,77.35
2023-01-03T18:49:27.209Z,77.33
2023-01-03T18:54:37.990Z,77.04
2023-01-03T18:59:45.969Z,76.82
2023-01-03T19:04:52.178Z,76.67
2023-01-03T19:09:58.880Z,76.60
2023-01-03T19:15:14.753Z,76.68
2023-01-03T19:20:24.896Z,76.58
2023-01-03T19:25:32.925Z,76.45
2023-01-03T19:30:44.468Z,76.51
2023-01-03T19:35:50.999Z,76.37
2023-01-03T19:40:56.616Z,76.38
2023-01-03T19:46:02.781Z,76.53
2023-01-03T19:51:10.703Z,76.38
2023-01-03T19:56:24.002Z,76.31
2023-01-03T20:01:50.239Z,75.97
2023-01-03T20:06:56.185Z,75.79
2023-01-03T20:12:01.966Z,75.67
2023-01-03T20:17:21.855Z,75.81
2023-01-03T20:23:03.321Z,75.88
2023-01-03T20:27:54.472Z,75.70
2023-01-03T20:33:00.403Z,75.49
2023-01-03T20:38:06.177Z,75.32
2023-01-03T20:43:14.430Z,75.21
2023-01-03T20:48:25.487Z,75.24
2023-01-03T20:53:32.319Z,75.21
2023-01-03T20:58:38.948Z,75.09
2023-01-03T21:03:44.973Z,74.90
2023-01-03T21:08:54.492Z,74.77
2023-01-03T21:14:01.389Z,74.51
2023-01-03T21:19:12.471Z,74.40
2023-01-03T21:24:20.166Z,74.41
2023-01-03T21:29:25.838Z,74.23
2023-01-03T21:34:32.373Z,74.18
2023-01-03T21:39:38.023Z,74.04
2023-01-03T21:44:43.753Z,73.77
2023-01-03T21:49:49.446Z,73.43
2023-01-03T21:54:55.116Z,73.27
2023-01-03T22:00:00.931Z,73.05
2023-01-03T22:05:07.651Z,73.13
2023-01-03T22:10:16.294Z,73.25
2023-01-03T22:15:23.225Z,73.30
2023-01-03T22:20:34.698Z,73.37
2023-01-03T22:25:44.155Z,73.31
2023-01-03T22:30:49.823Z,73.18
2023-01-03T22:35:55.876Z,73.14
2023-01-03T22:41:02.933Z,73.02
2023-01-03T22:46:10.995Z,73.02
2023-01-03T22:51:17.464Z,73.21
2023-01-03T22:56:23.191Z,73.33
2023-01-03T23:01:29.001Z,73.40
2023-01-03T23:06:36.259Z,73.44
2023-01-03T23:12:00.915Z,73.29
2023-01-03T23:17:25.035Z,72.92
2023-01-03T23:22:30.942Z,72.82
2023-01-03T23:27:36.730Z,72.78
2023-01-03T23:32:42.432Z,72.80
2023-01-03T23:37:48.336Z,72.95
2023-01-03T23:42:53.895Z,73.04
2023-01-03T23:47:59.572Z,73.12
2023-01-03T23:53:05.420Z,73.21
2023-01-03T23:58:11.104Z,73.09
